sensor_id;sensor_type;location;lat;lon;timestamp;P1;durP1;ratioP1;P2;durP2;ratioP2
79204;SDS011;68632;47.512;19.104;2023-09-07T00:00:29;10.00;;;6.47;;
79204;SDS011;68632;47.512;19.104;2023-09-07T00:01:31;10.80;;;7.80;;
79204;SDS011;68632;47.512;19.104;2023-09-07T00:02:34;11.10;;;6.68;;
79204;SDS011;68632;47.512;19.104;2023-09-07T00:03:42;10.05;;;6.80;;
79204;SDS011;68632;47.512;19.104;2023-09-07T00:04:45;10.15;;;6.15;;
79204;SDS011;68632;47.512;19.104;2023-09-07T00:05:47;9.50;;;6.38;;
79204;SDS011;68632;47.512;19.104;2023-09-07T00:06:49;12.65;;;7.03;;
79204;SDS011;68632;47.512;19.104;2023-09-07T00:07:51;8.95;;;6.43;;
79204;SDS011;68632;47.512;19.104;2023-09-07T00:08:54;9.00;;;5.95;;
79204;SDS011;68632;47.512;19.104;2023-09-07T00:09:56;9.68;;;5.88;;
79204;SDS011;68632;47.512;19.104;2023-09-07T00:11:04;10.23;;;6.15;;
79204;SDS011;68632;47.512;19.104;2023-09-07T00:12:07;12.10;;;6.03;;
79204;SDS011;68632;47.512;19.104;2023-09-07T00:13:09;9.63;;;6.25;;
79204;SDS011;68632;47.512;19.104;2023-09-07T00:14:12;7.70;;;6.53;;
79204;SDS011;68632;47.512;19.104;2023-09-07T00:15:14;8.07;;;5.72;;
79204;SDS011;68632;47.512;19.104;2023-09-07T00:16:16;9.52;;;6.43;;
79204;SDS011;68632;47.512;19.104;2023-09-07T00:17:18;8.77;;;5.80;;
79204;SDS011;68632;47.512;19.104;2023-09-07T00:18:21;9.43;;;6.10;;
79204;SDS011;68632;47.512;19.104;2023-09-07T00:19:23;7.80;;;6.25;;
79204;SDS011;68632;47.512;19.104;2023-09-07T00:20:27;7.47;;;5.78;;
79204;SDS011;68632;47.512;19.104;2023-09-07T00:21:29;9.32;;;5.70;;
79204;SDS011;68632;47.512;19.104;2023-09-07T00:22:31;10.35;;;6.38;;
79204;SDS011;68632;47.512;19.104;2023-09-07T00:23:35;9.57;;;5.80;;
79204;SDS011;68632;47.512;19.104;2023-09-07T00:24:37;9.75;;;6.47;;
79204;SDS011;68632;47.512;19.104;2023-09-07T00:25:39;9.82;;;7.25;;
79204;SDS011;68632;47.512;19.104;2023-09-07T00:26:41;10.77;;;6.03;;
79204;SDS011;68632;47.512;19.104;2023-09-07T00:27:43;8.27;;;6.55;;
79204;SDS011;68632;47.512;19.104;2023-09-07T00:28:45;11.60;;;6.82;;
79204;SDS011;68632;47.512;19.104;2023-09-07T00:29:48;8.77;;;6.38;;
79204;SDS011;68632;47.512;19.104;2023-09-07T00:30:50;9.05;;;6.57;;
79204;SDS011;68632;47.512;19.104;2023-09-07T00:31:52;10.55;;;6.97;;
79204;SDS011;68632;47.512;19.104;2023-09-07T00:32:55;10.73;;;6.60;;
79204;SDS011;68632;47.512;19.104;2023-09-07T00:33:57;10.50;;;6.40;;
79204;SDS011;68632;47.512;19.104;2023-09-07T00:34:59;12.05;;;6.97;;
79204;SDS011;68632;47.512;19.104;2023-09-07T00:36:01;8.73;;;6.95;;
79204;SDS011;68632;47.512;19.104;2023-09-07T00:37:04;11.18;;;7.38;;
79204;SDS011;68632;47.512;19.104;2023-09-07T00:38:07;8.38;;;6.47;;
79204;SDS011;68632;47.512;19.104;2023-09-07T00:39:09;9.05;;;6.45;;
79204;SDS011;68632;47.512;19.104;2023-09-07T00:40:12;8.57;;;6.57;;
79204;SDS011;68632;47.512;19.104;2023-09-07T00:41:14;12.23;;;7.03;;
79204;SDS011;68632;47.512;19.104;2023-09-07T00:42:16;8.90;;;6.25;;
79204;SDS011;68632;47.512;19.104;2023-09-07T00:43:18;10.05;;;6.18;;
79204;SDS011;68632;47.512;19.104;2023-09-07T00:44:20;11.20;;;6.22;;
79204;SDS011;68632;47.512;19.104;2023-09-07T00:45:23;9.95;;;5.88;;
79204;SDS011;68632;47.512;19.104;2023-09-07T00:46:25;7.05;;;5.95;;
79204;SDS011;68632;47.512;19.104;2023-09-07T00:47:28;9.38;;;6.80;;
79204;SDS011;68632;47.512;19.104;2023-09-07T00:48:31;9.80;;;6.53;;
79204;SDS011;68632;47.512;19.104;2023-09-07T00:49:33;8.52;;;6.38;;
79204;SDS011;68632;47.512;19.104;2023-09-07T00:50:35;8.68;;;6.07;;
79204;SDS011;68632;47.512;19.104;2023-09-07T00:51:38;8.80;;;5.35;;
79204;SDS011;68632;47.512;19.104;2023-09-07T00:52:41;8.60;;;6.28;;
79204;SDS011;68632;47.512;19.104;2023-09-07T00:53:44;12.05;;;6.82;;
79204;SDS011;68632;47.512;19.104;2023-09-07T00:54:46;8.93;;;5.82;;
79204;SDS011;68632;47.512;19.104;2023-09-07T00:55:48;10.75;;;6.95;;
79204;SDS011;68632;47.512;19.104;2023-09-07T00:56:51;8.63;;;5.78;;
79204;SDS011;68632;47.512;19.104;2023-09-07T00:57:54;8.93;;;5.47;;
79204;SDS011;68632;47.512;19.104;2023-09-07T00:58:56;9.63;;;5.80;;
79204;SDS011;68632;47.512;19.104;2023-09-07T01:00:02;9.77;;;6.10;;
79204;SDS011;68632;47.512;19.104;2023-09-07T01:01:08;8.23;;;5.78;;
79204;SDS011;68632;47.512;19.104;2023-09-07T01:02:10;9.85;;;5.53;;
79204;SDS011;68632;47.512;19.104;2023-09-07T01:03:13;10.23;;;6.03;;
79204;SDS011;68632;47.512;19.104;2023-09-07T01:04:16;8.43;;;5.65;;
79204;SDS011;68632;47.512;19.104;2023-09-07T01:05:19;8.57;;;6.55;;
79204;SDS011;68632;47.512;19.104;2023-09-07T01:06:27;11.02;;;5.78;;
79204;SDS011;68632;47.512;19.104;2023-09-07T01:07:32;9.05;;;5.82;;
79204;SDS011;68632;47.512;19.104;2023-09-07T01:08:42;9.93;;;6.68;;
79204;SDS011;68632;47.512;19.104;2023-09-07T01:09:47;6.93;;;5.25;;
79204;SDS011;68632;47.512;19.104;2023-09-07T01:10:51;10.40;;;6.10;;
79204;SDS011;68632;47.512;19.104;2023-09-07T01:11:53;8.93;;;5.43;;
79204;SDS011;68632;47.512;19.104;2023-09-07T01:12:55;9.95;;;7.07;;
79204;SDS011;68632;47.512;19.104;2023-09-07T01:13:57;7.18;;;5.82;;
79204;SDS011;68632;47.512;19.104;2023-09-07T01:15:00;10.93;;;6.18;;
79204;SDS011;68632;47.512;19.104;2023-09-07T01:16:02;7.47;;;5.25;;
79204;SDS011;68632;47.512;19.104;2023-09-07T01:17:05;7.53;;;6.00;;
79204;SDS011;68632;47.512;19.104;2023-09-07T01:18:07;8.75;;;5.75;;
79204;SDS011;68632;47.512;19.104;2023-09-07T01:19:25;8.80;;;5.95;;
79204;SDS011;68632;47.512;19.104;2023-09-07T01:20:27;8.55;;;5.78;;
79204;SDS011;68632;47.512;19.104;2023-09-07T01:21:37;10.45;;;6.25;;
79204;SDS011;68632;47.512;19.104;2023-09-07T01:22:40;11.38;;;5.75;;
79204;SDS011;68632;47.512;19.104;2023-09-07T01:23:43;8.57;;;6.80;;
79204;SDS011;68632;47.512;19.104;2023-09-07T01:24:46;9.75;;;6.38;;
79204;SDS011;68632;47.512;19.104;2023-09-07T01:25:49;8.70;;;6.18;;
79204;SDS011;68632;47.512;19.104;2023-09-07T01:26:52;9.57;;;6.05;;
79204;SDS011;68632;47.512;19.104;2023-09-07T01:27:54;10.90;;;6.88;;
79204;SDS011;68632;47.512;19.104;2023-09-07T01:28:56;8.73;;;7.03;;
79204;SDS011;68632;47.512;19.104;2023-09-07T01:29:59;11.77;;;7.93;;
79204;SDS011;68632;47.512;19.104;2023-09-07T01:31:01;9.55;;;7.15;;
79204;SDS011;68632;47.512;19.104;2023-09-07T01:32:04;9.88;;;6.57;;
79204;SDS011;68632;47.512;19.104;2023-09-07T01:33:06;8.88;;;6.80;;
79204;SDS011;68632;47.512;19.104;2023-09-07T01:34:10;8.63;;;6.25;;
79204;SDS011;68632;47.512;19.104;2023-09-07T01:35:13;8.07;;;6.13;;
79204;SDS011;68632;47.512;19.104;2023-09-07T01:36:18;8.60;;;6.45;;
79204;SDS011;68632;47.512;19.104;2023-09-07T01:37:21;10.70;;;6.15;;
79204;SDS011;68632;47.512;19.104;2023-09-07T01:38:23;8.90;;;5.93;;
79204;SDS011;68632;47.512;19.104;2023-09-07T01:39:25;7.90;;;6.30;;
79204;SDS011;68632;47.512;19.104;2023-09-07T01:40:28;9.07;;;5.80;;
79204;SDS011;68632;47.512;19.104;2023-09-07T01:41:30;8.13;;;5.90;;
79204;SDS011;68632;47.512;19.104;2023-09-07T01:42:33;8.93;;;6.00;;
79204;SDS011;68632;47.512;19.104;2023-09-07T01:43:35;10.75;;;6.20;;
79204;SDS011;68632;47.512;19.104;2023-09-07T01:44:39;9.30;;;6.35;;
79204;SDS011;68632;47.512;19.104;2023-09-07T01:45:41;11.88;;;6.70;;
79204;SDS011;68632;47.512;19.104;2023-09-07T01:46:44;8.65;;;6.40;;
79204;SDS011;68632;47.512;19.104;2023-09-07T01:47:46;10.77;;;6.05;;
79204;SDS011;68632;47.512;19.104;2023-09-07T01:48:48;11.32;;;6.78;;
79204;SDS011;68632;47.512;19.104;2023-09-07T01:49:50;10.73;;;6.35;;
79204;SDS011;68632;47.512;19.104;2023-09-07T01:50:53;9.95;;;6.47;;
79204;SDS011;68632;47.512;19.104;2023-09-07T01:51:56;9.07;;;5.88;;
79204;SDS011;68632;47.512;19.104;2023-09-07T01:52:58;7.53;;;5.72;;
79204;SDS011;68632;47.512;19.104;2023-09-07T01:54:00;8.02;;;5.47;;
79204;SDS011;68632;47.512;19.104;2023-09-07T01:55:02;7.63;;;6.35;;
79204;SDS011;68632;47.512;19.104;2023-09-07T01:56:04;8.07;;;5.88;;
79204;SDS011;68632;47.512;19.104;2023-09-07T01:57:07;8.90;;;6.03;;
79204;SDS011;68632;47.512;19.104;2023-09-07T01:58:09;9.45;;;5.75;;
79204;SDS011;68632;47.512;19.104;2023-09-07T01:59:11;9.10;;;6.13;;
79204;SDS011;68632;47.512;19.104;2023-09-07T02:00:14;8.38;;;6.20;;
79204;SDS011;68632;47.512;19.104;2023-09-07T02:01:26;9.55;;;7.55;;
79204;SDS011;68632;47.512;19.104;2023-09-07T02:02:32;8.43;;;6.65;;
79204;SDS011;68632;47.512;19.104;2023-09-07T02:03:34;9.88;;;7.25;;
79204;SDS011;68632;47.512;19.104;2023-09-07T02:04:37;8.90;;;6.40;;
79204;SDS011;68632;47.512;19.104;2023-09-07T02:05:39;10.52;;;6.40;;
79204;SDS011;68632;47.512;19.104;2023-09-07T02:06:41;11.30;;;6.78;;
79204;SDS011;68632;47.512;19.104;2023-09-07T02:07:43;11.57;;;6.75;;
79204;SDS011;68632;47.512;19.104;2023-09-07T02:08:46;9.45;;;6.88;;
79204;SDS011;68632;47.512;19.104;2023-09-07T02:09:48;10.98;;;6.95;;
79204;SDS011;68632;47.512;19.104;2023-09-07T02:10:50;9.75;;;6.68;;
79204;SDS011;68632;47.512;19.104;2023-09-07T02:11:53;10.25;;;7.20;;
79204;SDS011;68632;47.512;19.104;2023-09-07T02:12:55;11.05;;;6.38;;
79204;SDS011;68632;47.512;19.104;2023-09-07T02:13:58;11.38;;;7.00;;
79204;SDS011;68632;47.512;19.104;2023-09-07T02:15:01;10.85;;;6.93;;
79204;SDS011;68632;47.512;19.104;2023-09-07T02:16:04;10.50;;;6.60;;
79204;SDS011;68632;47.512;19.104;2023-09-07T02:17:07;12.40;;;7.13;;
79204;SDS011;68632;47.512;19.104;2023-09-07T02:18:09;9.23;;;6.57;;
79204;SDS011;68632;47.512;19.104;2023-09-07T02:19:12;9.18;;;6.32;;
79204;SDS011;68632;47.512;19.104;2023-09-07T02:20:14;8.88;;;6.80;;
79204;SDS011;68632;47.512;19.104;2023-09-07T02:21:17;9.10;;;5.82;;
79204;SDS011;68632;47.512;19.104;2023-09-07T02:22:19;8.32;;;6.38;;
79204;SDS011;68632;47.512;19.104;2023-09-07T02:23:21;9.07;;;6.22;;
79204;SDS011;68632;47.512;19.104;2023-09-07T02:24:23;9.60;;;6.40;;
79204;SDS011;68632;47.512;19.104;2023-09-07T02:25:26;7.97;;;6.70;;
79204;SDS011;68632;47.512;19.104;2023-09-07T02:26:29;8.55;;;6.57;;
79204;SDS011;68632;47.512;19.104;2023-09-07T02:27:32;10.15;;;7.03;;
79204;SDS011;68632;47.512;19.104;2023-09-07T02:28:34;9.02;;;6.18;;
79204;SDS011;68632;47.512;19.104;2023-09-07T02:29:36;9.50;;;6.53;;
79204;SDS011;68632;47.512;19.104;2023-09-07T02:30:39;8.13;;;6.20;;
79204;SDS011;68632;47.512;19.104;2023-09-07T02:31:42;8.95;;;6.90;;
79204;SDS011;68632;47.512;19.104;2023-09-07T02:32:44;9.45;;;6.60;;
79204;SDS011;68632;47.512;19.104;2023-09-07T02:33:46;11.82;;;6.78;;
79204;SDS011;68632;47.512;19.104;2023-09-07T02:34:48;9.57;;;7.25;;
79204;SDS011;68632;47.512;19.104;2023-09-07T02:35:50;9.13;;;6.72;;
79204;SDS011;68632;47.512;19.104;2023-09-07T02:36:53;8.93;;;6.57;;
79204;SDS011;68632;47.512;19.104;2023-09-07T02:37:55;8.60;;;6.70;;
79204;SDS011;68632;47.512;19.104;2023-09-07T02:38:57;10.07;;;6.50;;
79204;SDS011;68632;47.512;19.104;2023-09-07T02:39:59;9.95;;;6.03;;
79204;SDS011;68632;47.512;19.104;2023-09-07T02:41:02;10.48;;;6.32;;
79204;SDS011;68632;47.512;19.104;2023-09-07T02:42:05;9.80;;;6.68;;
79204;SDS011;68632;47.512;19.104;2023-09-07T02:43:07;8.77;;;6.22;;
79204;SDS011;68632;47.512;19.104;2023-09-07T02:44:09;9.38;;;6.40;;
79204;SDS011;68632;47.512;19.104;2023-09-07T02:45:12;11.25;;;6.68;;
79204;SDS011;68632;47.512;19.104;2023-09-07T02:46:14;9.85;;;6.57;;
79204;SDS011;68632;47.512;19.104;2023-09-07T02:47:16;8.95;;;6.45;;
79204;SDS011;68632;47.512;19.104;2023-09-07T02:48:18;7.90;;;6.35;;
79204;SDS011;68632;47.512;19.104;2023-09-07T02:49:21;8.95;;;6.22;;
79204;SDS011;68632;47.512;19.104;2023-09-07T02:50:23;11.02;;;6.38;;
79204;SDS011;68632;47.512;19.104;2023-09-07T02:51:25;9.20;;;6.38;;
79204;SDS011;68632;47.512;19.104;2023-09-07T02:52:27;8.20;;;6.15;;
79204;SDS011;68632;47.512;19.104;2023-09-07T02:53:29;11.50;;;6.50;;
79204;SDS011;68632;47.512;19.104;2023-09-07T02:54:32;9.60;;;6.13;;
79204;SDS011;68632;47.512;19.104;2023-09-07T02:55:34;10.07;;;6.45;;
79204;SDS011;68632;47.512;19.104;2023-09-07T02:56:36;7.47;;;5.70;;
79204;SDS011;68632;47.512;19.104;2023-09-07T02:57:38;8.13;;;5.88;;
79204;SDS011;68632;47.512;19.104;2023-09-07T02:58:41;10.15;;;6.28;;
79204;SDS011;68632;47.512;19.104;2023-09-07T02:59:43;10.30;;;6.15;;
79204;SDS011;68632;47.512;19.104;2023-09-07T03:00:45;9.50;;;6.30;;
79204;SDS011;68632;47.512;19.104;2023-09-07T03:01:49;8.27;;;5.85;;
79204;SDS011;68632;47.512;19.104;2023-09-07T03:02:51;9.85;;;6.22;;
79204;SDS011;68632;47.512;19.104;2023-09-07T03:03:54;9.52;;;6.20;;
79204;SDS011;68632;47.512;19.104;2023-09-07T03:04:56;10.95;;;6.30;;
79204;SDS011;68632;47.512;19.104;2023-09-07T03:06:07;8.30;;;6.03;;
79204;SDS011;68632;47.512;19.104;2023-09-07T03:07:10;8.50;;;6.40;;
79204;SDS011;68632;47.512;19.104;2023-09-07T03:08:12;9.45;;;5.97;;
79204;SDS011;68632;47.512;19.104;2023-09-07T03:09:15;7.95;;;6.07;;
79204;SDS011;68632;47.512;19.104;2023-09-07T03:10:18;8.32;;;6.50;;
79204;SDS011;68632;47.512;19.104;2023-09-07T03:11:21;7.75;;;6.07;;
79204;SDS011;68632;47.512;19.104;2023-09-07T03:12:23;9.02;;;6.07;;
79204;SDS011;68632;47.512;19.104;2023-09-07T03:13:25;10.63;;;6.13;;
79204;SDS011;68632;47.512;19.104;2023-09-07T03:14:28;8.35;;;6.57;;
79204;SDS011;68632;47.512;19.104;2023-09-07T03:15:30;9.18;;;7.00;;
79204;SDS011;68632;47.512;19.104;2023-09-07T03:16:33;9.77;;;6.90;;
79204;SDS011;68632;47.512;19.104;2023-09-07T03:17:35;8.07;;;6.25;;
79204;SDS011;68632;47.512;19.104;2023-09-07T03:18:37;11.77;;;6.80;;
79204;SDS011;68632;47.512;19.104;2023-09-07T03:19:40;8.35;;;6.57;;
79204;SDS011;68632;47.512;19.104;2023-09-07T03:20:42;9.70;;;6.68;;
79204;SDS011;68632;47.512;19.104;2023-09-07T03:21:44;12.70;;;6.93;;
79204;SDS011;68632;47.512;19.104;2023-09-07T03:22:47;18.58;;;6.43;;
79204;SDS011;68632;47.512;19.104;2023-09-07T03:23:49;10.35;;;7.20;;
79204;SDS011;68632;47.512;19.104;2023-09-07T03:24:51;8.25;;;6.47;;
79204;SDS011;68632;47.512;19.104;2023-09-07T03:25:54;12.07;;;6.20;;
79204;SDS011;68632;47.512;19.104;2023-09-07T03:26:56;9.90;;;6.40;;
79204;SDS011;68632;47.512;19.104;2023-09-07T03:27:58;11.20;;;6.90;;
79204;SDS011;68632;47.512;19.104;2023-09-07T03:29:00;9.65;;;6.43;;
79204;SDS011;68632;47.512;19.104;2023-09-07T03:30:03;9.85;;;6.00;;
79204;SDS011;68632;47.512;19.104;2023-09-07T03:31:06;9.85;;;6.85;;
79204;SDS011;68632;47.512;19.104;2023-09-07T03:32:08;8.90;;;6.70;;
79204;SDS011;68632;47.512;19.104;2023-09-07T03:33:10;9.30;;;6.70;;
79204;SDS011;68632;47.512;19.104;2023-09-07T03:34:13;9.52;;;6.78;;
79204;SDS011;68632;47.512;19.104;2023-09-07T03:35:15;9.52;;;6.18;;
79204;SDS011;68632;47.512;19.104;2023-09-07T03:36:17;9.35;;;7.13;;
79204;SDS011;68632;47.512;19.104;2023-09-07T03:37:19;11.82;;;6.38;;
79204;SDS011;68632;47.512;19.104;2023-09-07T03:38:22;7.78;;;5.80;;
79204;SDS011;68632;47.512;19.104;2023-09-07T03:39:24;9.63;;;6.70;;
79204;SDS011;68632;47.512;19.104;2023-09-07T03:40:26;7.78;;;6.10;;
79204;SDS011;68632;47.512;19.104;2023-09-07T03:41:28;9.32;;;6.18;;
79204;SDS011;68632;47.512;19.104;2023-09-07T03:42:32;9.20;;;6.38;;
79204;SDS011;68632;47.512;19.104;2023-09-07T03:43:35;8.35;;;6.10;;
79204;SDS011;68632;47.512;19.104;2023-09-07T03:44:37;10.07;;;6.25;;
79204;SDS011;68632;47.512;19.104;2023-09-07T03:45:41;10.00;;;6.85;;
79204;SDS011;68632;47.512;19.104;2023-09-07T03:46:43;10.35;;;6.88;;
79204;SDS011;68632;47.512;19.104;2023-09-07T03:47:46;8.88;;;7.22;;
79204;SDS011;68632;47.512;19.104;2023-09-07T03:48:48;11.52;;;7.25;;
79204;SDS011;68632;47.512;19.104;2023-09-07T03:49:50;10.18;;;6.35;;
79204;SDS011;68632;47.512;19.104;2023-09-07T03:50:52;11.23;;;6.90;;
79204;SDS011;68632;47.512;19.104;2023-09-07T03:51:55;11.95;;;7.22;;
79204;SDS011;68632;47.512;19.104;2023-09-07T03:52:57;10.60;;;6.43;;
79204;SDS011;68632;47.512;19.104;2023-09-07T03:53:59;9.18;;;7.13;;
79204;SDS011;68632;47.512;19.104;2023-09-07T03:55:01;8.18;;;6.80;;
79204;SDS011;68632;47.512;19.104;2023-09-07T03:56:04;9.73;;;6.63;;
79204;SDS011;68632;47.512;19.104;2023-09-07T03:57:06;11.20;;;6.95;;
79204;SDS011;68632;47.512;19.104;2023-09-07T03:58:09;9.98;;;6.80;;
79204;SDS011;68632;47.512;19.104;2023-09-07T03:59:12;11.98;;;7.93;;
79204;SDS011;68632;47.512;19.104;2023-09-07T04:00:14;10.32;;;7.03;;
79204;SDS011;68632;47.512;19.104;2023-09-07T04:01:16;11.02;;;7.60;;
79204;SDS011;68632;47.512;19.104;2023-09-07T04:02:19;10.50;;;7.05;;
79204;SDS011;68632;47.512;19.104;2023-09-07T04:03:21;8.95;;;6.90;;
79204;SDS011;68632;47.512;19.104;2023-09-07T04:04:24;14.18;;;6.93;;
79204;SDS011;68632;47.512;19.104;2023-09-07T04:05:26;11.13;;;6.95;;
79204;SDS011;68632;47.512;19.104;2023-09-07T04:06:28;9.30;;;7.50;;
79204;SDS011;68632;47.512;19.104;2023-09-07T04:07:31;9.55;;;7.40;;
79204;SDS011;68632;47.512;19.104;2023-09-07T04:08:33;10.52;;;7.20;;
79204;SDS011;68632;47.512;19.104;2023-09-07T04:09:36;8.98;;;6.35;;
79204;SDS011;68632;47.512;19.104;2023-09-07T04:10:38;10.18;;;7.55;;
79204;SDS011;68632;47.512;19.104;2023-09-07T04:11:40;9.68;;;6.95;;
79204;SDS011;68632;47.512;19.104;2023-09-07T04:12:42;12.70;;;7.25;;
79204;SDS011;68632;47.512;19.104;2023-09-07T04:13:44;10.82;;;6.82;;
79204;SDS011;68632;47.512;19.104;2023-09-07T04:14:47;13.32;;;7.85;;
79204;SDS011;68632;47.512;19.104;2023-09-07T04:15:49;11.25;;;7.72;;
79204;SDS011;68632;47.512;19.104;2023-09-07T04:16:51;10.77;;;7.63;;
79204;SDS011;68632;47.512;19.104;2023-09-07T04:17:53;10.82;;;8.32;;
79204;SDS011;68632;47.512;19.104;2023-09-07T04:18:57;10.52;;;7.25;;
79204;SDS011;68632;47.512;19.104;2023-09-07T04:19:59;14.10;;;7.90;;
79204;SDS011;68632;47.512;19.104;2023-09-07T04:21:07;13.60;;;8.45;;
79204;SDS011;68632;47.512;19.104;2023-09-07T04:22:12;11.27;;;8.30;;
79204;SDS011;68632;47.512;19.104;2023-09-07T04:23:14;15.93;;;8.45;;
79204;SDS011;68632;47.512;19.104;2023-09-07T04:24:17;11.60;;;8.38;;
79204;SDS011;68632;47.512;19.104;2023-09-07T04:25:19;16.17;;;8.63;;
79204;SDS011;68632;47.512;19.104;2023-09-07T04:26:22;13.35;;;8.65;;
79204;SDS011;68632;47.512;19.104;2023-09-07T04:27:24;12.90;;;8.15;;
79204;SDS011;68632;47.512;19.104;2023-09-07T04:28:26;13.63;;;9.00;;
79204;SDS011;68632;47.512;19.104;2023-09-07T04:29:29;12.63;;;7.65;;
79204;SDS011;68632;47.512;19.104;2023-09-07T04:30:32;10.95;;;8.25;;
79204;SDS011;68632;47.512;19.104;2023-09-07T04:31:35;14.43;;;8.43;;
79204;SDS011;68632;47.512;19.104;2023-09-07T04:32:37;13.30;;;8.15;;
79204;SDS011;68632;47.512;19.104;2023-09-07T04:33:39;12.52;;;7.93;;
79204;SDS011;68632;47.512;19.104;2023-09-07T04:34:42;13.23;;;8.93;;
79204;SDS011;68632;47.512;19.104;2023-09-07T04:35:44;12.48;;;8.82;;
79204;SDS011;68632;47.512;19.104;2023-09-07T04:36:46;12.73;;;9.48;;
79204;SDS011;68632;47.512;19.104;2023-09-07T04:37:48;11.77;;;7.85;;
79204;SDS011;68632;47.512;19.104;2023-09-07T04:38:50;12.80;;;7.78;;
79204;SDS011;68632;47.512;19.104;2023-09-07T04:39:53;12.10;;;8.07;;
79204;SDS011;68632;47.512;19.104;2023-09-07T04:40:55;13.30;;;8.98;;
79204;SDS011;68632;47.512;19.104;2023-09-07T04:41:57;13.05;;;8.02;;
79204;SDS011;68632;47.512;19.104;2023-09-07T04:43:00;13.38;;;8.65;;
79204;SDS011;68632;47.512;19.104;2023-09-07T04:44:02;10.55;;;7.93;;
79204;SDS011;68632;47.512;19.104;2023-09-07T04:45:05;11.00;;;7.93;;
79204;SDS011;68632;47.512;19.104;2023-09-07T04:46:07;9.80;;;7.88;;
79204;SDS011;68632;47.512;19.104;2023-09-07T04:47:10;11.23;;;7.88;;
79204;SDS011;68632;47.512;19.104;2023-09-07T04:48:12;14.18;;;8.32;;
79204;SDS011;68632;47.512;19.104;2023-09-07T04:49:14;11.27;;;7.60;;
79204;SDS011;68632;47.512;19.104;2023-09-07T04:50:16;10.70;;;7.40;;
79204;SDS011;68632;47.512;19.104;2023-09-07T04:51:19;11.07;;;7.65;;
79204;SDS011;68632;47.512;19.104;2023-09-07T04:52:22;13.18;;;8.90;;
79204;SDS011;68632;47.512;19.104;2023-09-07T04:53:24;10.38;;;7.50;;
79204;SDS011;68632;47.512;19.104;2023-09-07T04:54:26;10.82;;;8.02;;
79204;SDS011;68632;47.512;19.104;2023-09-07T04:55:29;11.25;;;7.75;;
79204;SDS011;68632;47.512;19.104;2023-09-07T04:56:31;10.75;;;7.53;;
79204;SDS011;68632;47.512;19.104;2023-09-07T04:57:33;10.73;;;8.10;;
79204;SDS011;68632;47.512;19.104;2023-09-07T04:58:35;11.15;;;7.75;;
79204;SDS011;68632;47.512;19.104;2023-09-07T04:59:38;13.48;;;8.25;;
79204;SDS011;68632;47.512;19.104;2023-09-07T05:00:40;12.30;;;7.63;;
79204;SDS011;68632;47.512;19.104;2023-09-07T05:01:42;12.00;;;8.63;;
79204;SDS011;68632;47.512;19.104;2023-09-07T05:02:44;11.88;;;8.25;;
79204;SDS011;68632;47.512;19.104;2023-09-07T05:03:48;13.45;;;7.63;;
79204;SDS011;68632;47.512;19.104;2023-09-07T05:04:52;11.75;;;8.57;;
79204;SDS011;68632;47.512;19.104;2023-09-07T05:05:54;13.07;;;7.68;;
79204;SDS011;68632;47.512;19.104;2023-09-07T05:06:56;12.32;;;9.15;;
79204;SDS011;68632;47.512;19.104;2023-09-07T05:07:58;9.85;;;7.57;;
79204;SDS011;68632;47.512;19.104;2023-09-07T05:09:01;11.55;;;7.57;;
79204;SDS011;68632;47.512;19.104;2023-09-07T05:10:03;11.10;;;7.85;;
79204;SDS011;68632;47.512;19.104;2023-09-07T05:11:06;12.85;;;7.70;;
79204;SDS011;68632;47.512;19.104;2023-09-07T05:12:08;11.15;;;7.95;;
79204;SDS011;68632;47.512;19.104;2023-09-07T05:13:10;11.65;;;7.22;;
79204;SDS011;68632;47.512;19.104;2023-09-07T05:14:13;13.00;;;7.13;;
79204;SDS011;68632;47.512;19.104;2023-09-07T05:15:15;10.57;;;7.53;;
79204;SDS011;68632;47.512;19.104;2023-09-07T05:16:19;14.38;;;7.03;;
79204;SDS011;68632;47.512;19.104;2023-09-07T05:17:21;14.95;;;7.68;;
79204;SDS011;68632;47.512;19.104;2023-09-07T05:18:23;13.68;;;7.43;;
79204;SDS011;68632;47.512;19.104;2023-09-07T05:19:26;11.35;;;7.75;;
79204;SDS011;68632;47.512;19.104;2023-09-07T05:20:32;11.07;;;7.07;;
79204;SDS011;68632;47.512;19.104;2023-09-07T05:21:34;11.82;;;8.32;;
79204;SDS011;68632;47.512;19.104;2023-09-07T05:22:36;11.15;;;7.20;;
79204;SDS011;68632;47.512;19.104;2023-09-07T05:23:41;12.40;;;7.97;;
79204;SDS011;68632;47.512;19.104;2023-09-07T05:24:44;16.98;;;8.35;;
79204;SDS011;68632;47.512;19.104;2023-09-07T05:25:49;14.90;;;7.90;;
79204;SDS011;68632;47.512;19.104;2023-09-07T05:26:54;14.75;;;8.02;;
79204;SDS011;68632;47.512;19.104;2023-09-07T05:27:56;14.48;;;9.30;;
79204;SDS011;68632;47.512;19.104;2023-09-07T05:28:58;14.18;;;8.85;;
79204;SDS011;68632;47.512;19.104;2023-09-07T05:30:01;12.60;;;8.15;;
79204;SDS011;68632;47.512;19.104;2023-09-07T05:31:06;13.50;;;9.63;;
79204;SDS011;68632;47.512;19.104;2023-09-07T05:32:09;16.23;;;8.88;;
79204;SDS011;68632;47.512;19.104;2023-09-07T05:33:12;13.63;;;8.80;;
79204;SDS011;68632;47.512;19.104;2023-09-07T05:34:18;13.15;;;7.88;;
79204;SDS011;68632;47.512;19.104;2023-09-07T05:35:20;12.95;;;8.10;;
79204;SDS011;68632;47.512;19.104;2023-09-07T05:36:23;11.90;;;8.15;;
79204;SDS011;68632;47.512;19.104;2023-09-07T05:37:25;12.23;;;8.40;;
79204;SDS011;68632;47.512;19.104;2023-09-07T05:38:27;12.60;;;7.95;;
79204;SDS011;68632;47.512;19.104;2023-09-07T05:39:33;11.48;;;7.57;;
79204;SDS011;68632;47.512;19.104;2023-09-07T05:40:36;10.10;;;7.95;;
79204;SDS011;68632;47.512;19.104;2023-09-07T05:41:39;11.02;;;8.98;;
79204;SDS011;68632;47.512;19.104;2023-09-07T05:42:41;12.93;;;8.35;;
79204;SDS011;68632;47.512;19.104;2023-09-07T05:43:43;15.75;;;8.52;;
79204;SDS011;68632;47.512;19.104;2023-09-07T05:44:45;11.05;;;7.63;;
79204;SDS011;68632;47.512;19.104;2023-09-07T05:45:48;10.18;;;7.72;;
79204;SDS011;68632;47.512;19.104;2023-09-07T05:46:50;10.70;;;8.10;;
79204;SDS011;68632;47.512;19.104;2023-09-07T05:47:53;9.98;;;7.15;;
79204;SDS011;68632;47.512;19.104;2023-09-07T05:48:55;13.52;;;7.28;;
79204;SDS011;68632;47.512;19.104;2023-09-07T05:49:57;12.13;;;7.30;;
79204;SDS011;68632;47.512;19.104;2023-09-07T05:50:59;11.77;;;7.22;;
79204;SDS011;68632;47.512;19.104;2023-09-07T05:52:02;10.85;;;7.55;;
79204;SDS011;68632;47.512;19.104;2023-09-07T05:53:04;13.05;;;7.47;;
79204;SDS011;68632;47.512;19.104;2023-09-07T05:54:07;10.48;;;7.07;;
79204;SDS011;68632;47.512;19.104;2023-09-07T05:55:09;11.57;;;7.45;;
79204;SDS011;68632;47.512;19.104;2023-09-07T05:56:12;9.60;;;7.30;;
79204;SDS011;68632;47.512;19.104;2023-09-07T05:57:14;11.65;;;6.78;;
79204;SDS011;68632;47.512;19.104;2023-09-07T05:58:16;9.50;;;7.15;;
79204;SDS011;68632;47.512;19.104;2023-09-07T05:59:19;13.45;;;7.82;;
79204;SDS011;68632;47.512;19.104;2023-09-07T06:00:21;13.15;;;6.90;;
79204;SDS011;68632;47.512;19.104;2023-09-07T06:01:24;14.13;;;6.20;;
79204;SDS011;68632;47.512;19.104;2023-09-07T06:02:26;13.57;;;6.50;;
79204;SDS011;68632;47.512;19.104;2023-09-07T06:03:28;9.98;;;6.80;;
79204;SDS011;68632;47.512;19.104;2023-09-07T06:04:31;9.88;;;6.28;;
79204;SDS011;68632;47.512;19.104;2023-09-07T06:05:34;11.35;;;6.05;;
79204;SDS011;68632;47.512;19.104;2023-09-07T06:06:37;10.43;;;6.50;;
79204;SDS011;68632;47.512;19.104;2023-09-07T06:07:39;11.27;;;6.20;;
79204;SDS011;68632;47.512;19.104;2023-09-07T06:08:41;9.95;;;5.68;;
79204;SDS011;68632;47.512;19.104;2023-09-07T06:09:44;11.52;;;6.22;;